»·PEaware :: UAL465 KSNA-KSFO

UAL465 :: KSNA-KSFO

FLIGHT INFORMATION

Flight Status: Arrived
Operator:
United Airlines
More flights by this operator :: More flights under this callsign
Pilot: Matt G. (13672)
Aircraft: AIRBUS A320
(A320)
More flights by this aircraft type
Origin: KSNA John Wayne-Orange Co
United States
Destination: KSFO San Francisco Intl
United States
More flights between these airports :: More routes between these airports
Route: HHERO3 IKAYE RIZIN SPLNT STOKD SERFR SERFR3
File this flight plan on PilotEdge
Remarks:
Altitude:
(Current/Filed)
30,000ft
Speed:
(Current/Filed)
425kts
Departed: 06-Oct-18 07:14 AM
Arrived: 06-Oct-18 08:14 AM
Distance/Time
Traveled:
323nm/1:00
Distance/Time
To Go:
Arrived

Flight Plot

Page will automatically refresh every two minutes.

Flight plan parsing failed; only flown route is shown


Map Options




Map Legend


Flown Route
Filed Route
Departure Airport
Arrival Airport
Navaid (VOR, NDB)
Fix

Horizontal Profiles

Position Reports

Time Latitude Longitude Heading Altitude Ground
Speed
06-Oct-18 06:51 33.678688 -117.862804 97 65ft 0kts
06-Oct-18 06:52 33.678688 -117.862804 97 65ft 0kts
06-Oct-18 06:53 33.678688 -117.862804 97 65ft 0kts
06-Oct-18 06:54 33.678688 -117.862804 97 65ft 0kts
06-Oct-18 06:55 33.678688 -117.862804 97 65ft 0kts
06-Oct-18 06:56 33.678688 -117.862804 97 65ft 0kts
06-Oct-18 06:57 33.678688 -117.862804 97 65ft 0kts
06-Oct-18 06:58 33.678688 -117.862804 97 65ft 0kts
06-Oct-18 06:59 33.678688 -117.862804 97 65ft 0kts
06-Oct-18 07:00 33.678688 -117.862804 97 65ft 0kts
06-Oct-18 07:01 33.678688 -117.862804 97 65ft 0kts
06-Oct-18 07:02 33.678688 -117.862804 97 65ft 0kts
06-Oct-18 07:03 33.678688 -117.862804 97 65ft 0kts
06-Oct-18 07:04 33.678688 -117.862804 97 65ft 0kts
06-Oct-18 07:05 33.678688 -117.862804 97 65ft 0kts
06-Oct-18 07:06 33.678688 -117.862804 97 65ft 0kts
06-Oct-18 07:07 33.678688 -117.862804 97 65ft 0kts
06-Oct-18 07:08 33.678688 -117.862804 97 65ft 0kts
06-Oct-18 07:09 33.678725 -117.863114 96 65ft 2kts
06-Oct-18 07:10 33.678447 -117.863722 35 65ft 2kts
06-Oct-18 07:11 33.678262 -117.863850 27 65ft 0kts
06-Oct-18 07:12 33.678262 -117.863850 27 65ft 0kts
06-Oct-18 07:13 33.680042 -117.862712 24 65ft 10kts
06-Oct-18 07:14 33.681155 -117.864243 299 65ft 0kts
06-Oct-18 07:15 33.681438 -117.864955 276 65ft 4kts
06-Oct-18 07:16 33.675478 -117.868885 207 65ft 121kts
06-Oct-18 07:17 33.633460 -117.890975 185 2132ft 191kts
06-Oct-18 07:18 33.573017 -117.901172 204 3951ft 262kts
06-Oct-18 07:19 33.521680 -117.966207 233 6815ft 282kts
06-Oct-18 07:20 33.475053 -118.042091 232 9504ft 298kts
06-Oct-18 07:21 33.423051 -118.126782 240 11072ft 350kts
06-Oct-18 07:22 33.428964 -118.244931 280 13232ft 372kts
06-Oct-18 07:23 33.465729 -118.359969 295 15577ft 375kts
06-Oct-18 07:24 33.513421 -118.469508 297 16459ft 371kts
06-Oct-18 07:25 33.574313 -118.570171 308 18248ft 379kts
06-Oct-18 07:26 33.637219 -118.668414 307 19780ft 387kts
06-Oct-18 07:27 33.721362 -118.747203 331 21200ft 396kts
06-Oct-18 07:28 33.819885 -118.808351 331 22522ft 404kts
06-Oct-18 07:29 33.919682 -118.870525 331 23758ft 410kts
06-Oct-18 07:30 34.020691 -118.933609 331 24816ft 418kts
06-Oct-18 07:31 34.123232 -119.000096 323 25774ft 424kts
06-Oct-18 07:32 34.192061 -119.104819 301 26621ft 429kts
06-Oct-18 07:33 34.255073 -119.227536 301 27456ft 437kts
06-Oct-18 07:34 34.318558 -119.351320 301 28491ft 437kts
06-Oct-18 07:35 34.382197 -119.475812 301 29520ft 437kts
06-Oct-18 07:36 34.457429 -119.589410 314 29925ft 436kts
06-Oct-18 07:37 34.542101 -119.693561 313 29927ft 437kts
06-Oct-18 07:38 34.627202 -119.798634 313 29930ft 439kts
06-Oct-18 07:39 34.712382 -119.904119 313 29991ft 439kts
06-Oct-18 07:40 34.797518 -120.009909 313 29981ft 438kts
06-Oct-18 07:41 34.882082 -120.115264 313 29966ft 439kts
06-Oct-18 07:42 34.966972 -120.221377 313 29972ft 439kts
06-Oct-18 07:43 35.051426 -120.327279 313 29979ft 440kts
06-Oct-18 07:44 35.135296 -120.426058 316 29984ft 441kts
06-Oct-18 07:45 35.222823 -120.524202 316 29986ft 441kts
06-Oct-18 07:46 35.313075 -120.625702 316 29951ft 444kts
06-Oct-18 07:47 35.399771 -120.723497 316 29970ft 447kts
06-Oct-18 07:48 35.491833 -120.825689 320 30038ft 450kts
06-Oct-18 07:49 35.591502 -120.918348 321 30044ft 450kts
06-Oct-18 07:50 35.690647 -121.010598 321 30024ft 449kts
06-Oct-18 07:51 35.789972 -121.103300 321 30005ft 449kts
06-Oct-18 07:52 35.889011 -121.196024 321 29996ft 448kts
06-Oct-18 07:53 35.987878 -121.288886 321 29996ft 448kts
06-Oct-18 07:54 36.087779 -121.379738 328 30027ft 449kts
06-Oct-18 07:55 36.182525 -121.453600 327 29876ft 437kts
06-Oct-18 07:56 36.277016 -121.527659 326 28510ft 416kts
06-Oct-18 07:57 36.373269 -121.603154 326 26644ft 405kts
06-Oct-18 07:58 36.466781 -121.676685 325 24802ft 396kts
06-Oct-18 07:59 36.557879 -121.748592 325 22968ft 387kts
06-Oct-18 08:00 36.644795 -121.817420 325 20063ft 371kts
06-Oct-18 08:01 36.725197 -121.881254 325 17725ft 342kts
06-Oct-18 08:02 36.809592 -121.913179 346 16145ft 304kts
06-Oct-18 08:03 36.891026 -121.935922 346 14708ft 301kts
06-Oct-18 08:04 36.971570 -121.960804 341 13241ft 298kts
06-Oct-18 08:05 37.048897 -121.990918 341 11815ft 295kts
06-Oct-18 08:06 37.124172 -122.020245 341 10430ft 292kts
06-Oct-18 08:07 37.199822 -122.049848 342 9111ft 286kts
06-Oct-18 08:08 37.273694 -122.078834 342 7954ft 273kts
06-Oct-18 08:09 37.345046 -122.106968 342 6693ft 268kts
06-Oct-18 08:10 37.414264 -122.132492 345 5424ft 265kts
06-Oct-18 08:11 37.467892 -122.150761 344 4472ft 262kts
06-Oct-18 08:12 37.540886 -122.188326 298 3264ft 229kts
06-Oct-18 08:13 37.567824 -122.253779 298 2078ft 200kts
06-Oct-18 08:14 37.590357 -122.307554 299 934ft 148kts
06-Oct-18 08:15 37.606159 -122.345187 301 287ft 139kts
06-Oct-18 08:16 37.619903 -122.378506 271 21ft 15kts
06-Oct-18 08:17 37.619134 -122.380260 251 21ft 7kts

Navigation Log

Ident Type
Flight plan parsing failed, navigation log unavailable